Time;durP1;ratioP1;P1;durP2;ratioP2;P2;SDS_P1;SDS_P2;PMS_P1;PMS_P2;Temp;Humidity;BMP_temperature;BMP_pressure;BME280_temperature;BME280_humidity;BME280_pressure;Samples;Min_cycle;Max_cycle;Signal;HPM_P1;HPM_P2
2021/01/09 00:00:12;;;;;;;27.60;13.25;;;0.10;99.90;;;;;;5051061;28;20024;-73
2021/01/09 00:02:41;;;;;;;24.98;11.68;;;0.10;99.90;;;;;;5051052;28;20100;-76
2021/01/09 00:05:08;;;;;;;23.92;11.05;;;0.10;99.90;;;;;;5048577;28;20021;-76
2021/01/09 00:07:35;;;;;;;20.02;9.82;;;0.10;99.90;;;;;;5048917;28;20048;-76
2021/01/09 00:10:02;;;;;;;23.35;11.43;;;0.10;99.90;;;;;;5049820;28;20514;-75
2021/01/09 00:12:28;;;;;;;25.27;11.98;;;0.10;99.90;;;;;;5049691;28;20116;-76
2021/01/09 00:14:53;;;;;;;24.35;11.15;;;0.10;99.90;;;;;;5050874;28;20112;-76
2021/01/09 00:17:19;;;;;;;24.90;11.70;;;0.10;99.90;;;;;;5065783;28;20124;-75
2021/01/09 00:19:45;;;;;;;22.23;10.75;;;0.20;99.90;;;;;;5049793;28;20112;-76
2021/01/09 00:22:10;;;;;;;20.88;10.43;;;0.20;99.90;;;;;;5049691;28;20029;-76
2021/01/09 00:24:36;;;;;;;23.58;12.07;;;0.20;99.90;;;;;;5049497;28;20032;-76
2021/01/09 00:27:08;;;;;;;24.08;12.32;;;0.20;99.90;;;;;;5050520;28;20472;-76
2021/01/09 00:29:33;;;;;;;25.13;11.65;;;0.20;99.90;;;;;;5051239;28;20025;-74
2021/01/09 00:31:59;;;;;;;22.08;10.80;;;0.30;99.90;;;;;;5051206;28;20029;-75
2021/01/09 00:34:24;;;;;;;20.92;10.88;;;0.50;99.90;;;;;;5051237;28;20029;-76
2021/01/09 00:36:50;;;;;;;24.20;11.57;;;0.50;99.90;;;;;;5049247;28;20066;-75
2021/01/09 00:39:15;;;;;;;23.67;10.60;;;0.50;99.90;;;;;;5049964;28;20545;-73
2021/01/09 00:41:41;;;;;;;20.58;10.40;;;0.60;99.90;;;;;;5051365;28;20061;-76
2021/01/09 00:44:07;;;;;;;20.80;11.23;;;0.60;99.90;;;;;;5051396;28;20481;-76
2021/01/09 00:46:33;;;;;;;20.75;10.32;;;0.70;99.90;;;;;;5050573;28;20024;-75
2021/01/09 00:48:59;;;;;;;18.55;9.95;;;0.70;99.90;;;;;;5051236;28;20064;-76
2021/01/09 00:51:25;;;;;;;22.08;11.30;;;0.70;99.90;;;;;;5051776;28;20025;-75
2021/01/09 00:53:50;;;;;;;22.35;11.45;;;0.60;99.90;;;;;;5054121;28;20032;-74
2021/01/09 00:56:16;;;;;;;21.90;11.38;;;0.60;99.90;;;;;;5052832;28;20025;-76
2021/01/09 00:58:43;;;;;;;25.98;13.68;;;0.60;99.90;;;;;;5054687;28;20028;-76
2021/01/09 01:01:08;;;;;;;24.17;11.55;;;0.50;99.90;;;;;;5070198;28;20040;-73
2021/01/09 01:03:34;;;;;;;21.75;11.05;;;0.60;99.90;;;;;;5054659;28;20025;-75
2021/01/09 01:06:00;;;;;;;27.25;13.05;;;0.50;99.90;;;;;;5052993;28;20025;-76
2021/01/09 01:08:27;;;;;;;23.00;11.25;;;0.60;99.90;;;;;;5052912;28;20119;-76
2021/01/09 01:10:54;;;;;;;20.40;10.00;;;0.60;99.90;;;;;;5053287;28;20507;-76
2021/01/09 01:13:21;;;;;;;21.83;10.95;;;0.50;99.90;;;;;;5069798;28;20480;-76
2021/01/09 01:15:46;;;;;;;21.05;10.63;;;0.50;99.90;;;;;;5054152;28;20035;-75
2021/01/09 01:18:12;;;;;;;20.17;11.18;;;0.50;99.90;;;;;;5053707;28;20021;-76
2021/01/09 01:20:37;;;;;;;24.42;11.45;;;0.60;99.90;;;;;;5053072;28;20021;-76
2021/01/09 01:23:03;;;;;;;21.05;10.73;;;0.60;99.90;;;;;;5069542;28;20021;-75
2021/01/09 01:25:29;;;;;;;23.35;10.90;;;0.50;99.90;;;;;;5054162;28;20025;-74
2021/01/09 01:27:54;;;;;;;21.48;11.10;;;0.60;99.90;;;;;;5052281;28;20032;-76
2021/01/09 01:30:20;;;;;;;21.00;10.57;;;0.60;99.90;;;;;;5053938;28;20017;-76
2021/01/09 01:32:45;;;;;;;21.25;10.45;;;0.50;99.90;;;;;;5069392;28;20048;-75
2021/01/09 01:35:11;;;;;;;23.73;11.35;;;0.60;99.90;;;;;;5052434;28;20052;-75
2021/01/09 01:37:36;;;;;;;19.55;10.68;;;0.60;99.90;;;;;;5051775;28;20039;-76
2021/01/09 01:40:04;;;;;;;20.50;10.93;;;0.60;99.90;;;;;;5052493;28;20055;-76
2021/01/09 01:42:30;;;;;;;21.83;10.90;;;0.50;99.90;;;;;;5068985;28;20075;-76
2021/01/09 01:44:55;;;;;;;25.58;12.27;;;0.50;99.90;;;;;;5068726;28;20029;-74
2021/01/09 01:47:21;;;;;;;22.13;11.00;;;0.60;99.90;;;;;;5053002;28;20074;-77
2021/01/09 01:49:49;;;;;;;26.38;11.57;;;0.70;99.90;;;;;;5052337;28;20029;-76
2021/01/09 01:52:15;;;;;;;22.70;11.30;;;0.90;99.90;;;;;;5052200;28;20021;-74
2021/01/09 01:54:42;;;;;;;23.05;11.18;;;1.00;99.90;;;;;;5052008;28;20029;-76
2021/01/09 01:57:09;;;;;;;29.17;12.20;;;0.90;99.90;;;;;;5052709;28;20025;-74
2021/01/09 01:59:35;;;;;;;25.45;10.93;;;0.80;99.90;;;;;;5053458;28;20564;-74
2021/01/09 02:02:04;;;;;;;20.85;10.63;;;0.90;99.90;;;;;;5052825;28;20037;-74
2021/01/09 02:04:30;;;;;;;24.52;12.57;;;0.80;99.90;;;;;;5051632;28;20396;-76
2021/01/09 02:06:59;;;;;;;23.27;11.45;;;0.70;99.90;;;;;;5052506;28;20021;-75
2021/01/09 02:09:29;;;;;;;25.02;10.90;;;0.60;99.90;;;;;;5051881;28;20028;-75
2021/01/09 02:12:15;;;;;;;26.92;11.75;;;0.60;99.90;;;;;;5053042;28;20393;-74
2021/01/09 02:14:52;;;;;;;27.98;11.95;;;0.50;99.90;;;;;;5051734;28;20037;-76
2021/01/09 02:17:19;;;;;;;23.15;10.95;;;0.50;99.90;;;;;;5051098;28;20052;-75
2021/01/09 02:19:45;;;;;;;27.00;12.27;;;0.50;99.90;;;;;;5051823;28;20514;-76
2021/01/09 02:22:15;;;;;;;22.48;10.02;;;0.50;99.90;;;;;;5068336;28;20055;-76
2021/01/09 02:24:46;;;;;;;22.27;11.43;;;0.50;99.90;;;;;;5053111;28;20060;-74
2021/01/09 02:27:12;;;;;;;20.92;10.48;;;0.60;99.90;;;;;;5067874;28;20070;-73
2021/01/09 02:29:52;;;;;;;22.08;10.90;;;0.60;99.90;;;;;;5052360;28;20021;-76
2021/01/09 02:32:19;;;;;;;23.23;11.40;;;0.70;99.90;;;;;;5052060;28;20033;-76
2021/01/09 02:34:53;;;;;;;21.83;10.10;;;0.70;99.90;;;;;;5052025;28;20032;-75
2021/01/09 02:37:19;;;;;;;22.15;10.75;;;0.70;99.90;;;;;;5051491;28;20036;-75
2021/01/09 02:39:46;;;;;;;23.90;11.25;;;0.70;99.90;;;;;;5068604;28;20056;-76
2021/01/09 02:42:12;;;;;;;22.50;10.98;;;0.70;99.90;;;;;;5053758;28;20104;-76
2021/01/09 02:44:38;;;;;;;23.50;10.88;;;0.60;99.90;;;;;;5052844;28;20146;-76
2021/01/09 02:47:04;;;;;;;20.58;9.90;;;0.60;99.90;;;;;;5052474;28;20108;-76
2021/01/09 02:49:30;;;;;;;22.70;10.25;;;0.50;99.90;;;;;;5053855;28;20032;-76
2021/01/09 02:51:55;;;;;;;22.20;10.85;;;0.50;99.90;;;;;;5053914;28;20032;-76
2021/01/09 02:54:21;;;;;;;25.88;11.38;;;0.40;99.90;;;;;;5068549;28;20025;-73
2021/01/09 02:56:46;;;;;;;22.60;11.20;;;0.40;99.90;;;;;;5051208;28;20537;-76
2021/01/09 02:59:12;;;;;;;22.95;10.52;;;0.40;99.90;;;;;;5052012;28;20047;-76
2021/01/09 03:01:37;;;;;;;22.25;10.82;;;0.50;99.90;;;;;;5051814;28;20040;-73
2021/01/09 03:04:03;;;;;;;22.83;10.30;;;0.50;99.90;;;;;;5054002;28;20028;-74
2021/01/09 03:06:28;;;;;;;21.45;10.90;;;0.50;99.90;;;;;;5052566;28;20024;-76
2021/01/09 03:08:54;;;;;;;20.42;10.38;;;0.50;99.90;;;;;;5052359;28;20021;-75
2021/01/09 03:11:19;;;;;;;21.10;10.25;;;0.50;99.90;;;;;;5068803;28;20067;-74
2021/01/09 03:13:45;;;;;;;19.77;9.77;;;0.40;99.90;;;;;;5051504;28;20474;-75
2021/01/09 03:16:11;;;;;;;21.75;9.93;;;0.50;99.90;;;;;;5050137;28;20040;-75
2021/01/09 03:18:36;;;;;;;23.60;9.98;;;0.50;99.90;;;;;;5052069;28;20021;-76
2021/01/09 03:21:03;;;;;;;18.80;9.02;;;0.50;99.90;;;;;;5051467;28;20033;-75
2021/01/09 03:23:28;;;;;;;20.10;10.25;;;0.50;99.90;;;;;;5052864;28;20025;-74
2021/01/09 03:25:54;;;;;;;21.85;9.75;;;0.50;99.90;;;;;;5068261;28;20403;-76
2021/01/09 03:28:19;;;;;;;20.38;10.02;;;0.50;99.90;;;;;;5050880;28;20025;-76
2021/01/09 03:30:45;;;;;;;22.08;9.88;;;0.50;99.90;;;;;;5051170;28;20024;-75
2021/01/09 03:33:10;;;;;;;18.58;8.65;;;0.50;99.90;;;;;;5051183;28;20028;-74
2021/01/09 03:35:36;;;;;;;20.23;10.10;;;0.50;99.90;;;;;;5051748;28;20044;-75
2021/01/09 03:38:01;;;;;;;20.42;9.48;;;0.50;99.90;;;;;;5051471;28;20017;-76
2021/01/09 03:40:27;;;;;;;18.38;9.63;;;0.50;99.90;;;;;;5053430;28;20029;-74
2021/01/09 03:42:53;;;;;;;21.13;10.55;;;0.50;99.90;;;;;;5053368;28;20024;-75
2021/01/09 03:45:19;;;;;;;18.40;9.25;;;0.50;99.90;;;;;;5048658;28;20028;-75
2021/01/09 03:47:44;;;;;;;19.58;10.02;;;0.50;99.90;;;;;;5051327;28;20028;-75
2021/01/09 03:50:10;;;;;;;19.88;10.00;;;0.50;99.90;;;;;;5051894;28;20027;-75
2021/01/09 03:52:35;;;;;;;19.02;9.55;;;0.50;99.90;;;;;;5052379;28;20029;-76
2021/01/09 03:55:01;;;;;;;18.80;9.65;;;0.60;99.90;;;;;;5051508;28;20043;-76
2021/01/09 03:57:27;;;;;;;19.83;9.07;;;0.60;99.90;;;;;;5052269;28;20025;-75
2021/01/09 03:59:53;;;;;;;17.05;8.40;;;0.80;99.90;;;;;;5050944;28;20028;-73
2021/01/09 04:02:18;;;;;;;19.70;10.10;;;1.00;99.90;;;;;;5052643;28;20047;-74
2021/01/09 04:04:44;;;;;;;21.35;8.80;;;0.90;99.90;;;;;;5051472;28;20070;-75
2021/01/09 04:07:09;;;;;;;19.80;9.57;;;1.00;99.90;;;;;;5050348;28;20516;-76
2021/01/09 04:09:35;;;;;;;16.75;8.25;;;1.10;99.90;;;;;;5050361;28;20017;-74
2021/01/09 04:12:00;;;;;;;17.23;8.20;;;1.00;99.80;;;;;;5050345;28;20021;-75
2021/01/09 04:14:26;;;;;;;20.23;9.05;;;1.00;99.90;;;;;;5050525;28;20033;-76
2021/01/09 04:16:52;;;;;;;16.10;7.85;;;1.00;99.90;;;;;;5049740;28;20067;-75
2021/01/09 04:19:17;;;;;;;19.10;9.50;;;0.90;99.90;;;;;;5050629;28;20171;-75
2021/01/09 04:21:54;;;;;;;17.67;8.77;;;0.90;99.90;;;;;;5052067;28;20032;-76
2021/01/09 04:24:21;;;;;;;17.63;8.23;;;1.00;99.50;;;;;;5050255;28;20025;-75
2021/01/09 04:26:58;;;;;;;16.92;8.63;;;1.00;99.70;;;;;;5052133;28;20068;-74
2021/01/09 04:29:24;;;;;;;18.00;7.45;;;0.90;99.30;;;;;;5055657;28;20025;-76
2021/01/09 04:31:50;;;;;;;16.27;8.07;;;0.90;98.90;;;;;;5056064;28;20024;-74
2021/01/09 04:34:17;;;;;;;16.58;8.00;;;0.90;99.10;;;;;;5054840;28;20029;-74
2021/01/09 04:36:43;;;;;;;18.60;8.48;;;0.90;99.10;;;;;;5055409;28;20033;-75
2021/01/09 04:39:08;;;;;;;17.02;8.30;;;0.90;98.90;;;;;;5054221;28;20074;-75
2021/01/09 04:41:36;;;;;;;16.05;8.40;;;0.90;98.10;;;;;;5055531;28;20037;-75
2021/01/09 04:44:03;;;;;;;16.73;8.57;;;0.90;98.40;;;;;;5055675;28;20028;-75
2021/01/09 04:46:31;;;;;;;15.57;7.78;;;0.80;98.70;;;;;;5053230;28;20025;-75
2021/01/09 04:48:57;;;;;;;16.65;7.78;;;0.80;98.10;;;;;;5055380;28;20025;-75
2021/01/09 04:51:24;;;;;;;16.38;6.95;;;0.70;98.50;;;;;;5053816;28;20124;-76
2021/01/09 04:53:52;;;;;;;14.85;8.20;;;0.80;98.00;;;;;;5053872;28;20075;-73
2021/01/09 04:56:19;;;;;;;16.23;7.47;;;0.90;98.00;;;;;;5053491;28;20036;-74
2021/01/09 04:58:44;;;;;;;16.88;8.25;;;0.80;98.30;;;;;;5054159;28;20025;-74
2021/01/09 05:01:10;;;;;;;16.38;8.48;;;0.80;98.40;;;;;;5055205;28;20032;-75
2021/01/09 05:03:35;;;;;;;19.00;9.70;;;0.90;98.50;;;;;;5055736;28;20392;-75
2021/01/09 05:06:01;;;;;;;13.85;6.57;;;0.80;98.50;;;;;;5055082;28;20025;-74
2021/01/09 05:08:26;;;;;;;20.48;9.15;;;0.90;98.40;;;;;;5053864;28;20021;-75
2021/01/09 05:10:52;;;;;;;19.55;8.07;;;0.70;99.90;;;;;;5054394;28;20491;-75
2021/01/09 05:13:22;;;;;;;16.25;8.27;;;0.80;99.70;;;;;;5054184;28;20075;-75
2021/01/09 05:15:47;;;;;;;18.58;8.60;;;0.70;99.90;;;;;;5055847;28;20029;-74
2021/01/09 05:18:13;;;;;;;17.52;8.23;;;0.70;99.90;;;;;;5055168;28;20471;-76
2021/01/09 05:20:38;;;;;;;19.80;8.65;;;0.80;99.90;;;;;;5054314;28;20025;-75
2021/01/09 05:23:04;;;;;;;17.63;8.15;;;0.70;99.90;;;;;;5054637;28;20028;-75
2021/01/09 05:25:29;;;;;;;16.35;8.20;;;0.70;99.90;;;;;;5053468;28;20131;-76
2021/01/09 05:27:57;;;;;;;18.42;9.60;;;0.80;99.90;;;;;;5054440;28;20091;-76
2021/01/09 05:30:23;;;;;;;17.83;8.95;;;0.70;99.90;;;;;;5054517;28;20025;-76
2021/01/09 05:32:50;;;;;;;18.35;9.38;;;0.70;99.90;;;;;;5054439;28;20047;-75
2021/01/09 05:35:17;;;;;;;17.23;9.15;;;0.70;99.90;;;;;;5054628;28;20429;-74
2021/01/09 05:37:48;;;;;;;16.35;8.95;;;0.70;99.90;;;;;;5053688;28;20028;-75
2021/01/09 05:40:14;;;;;;;14.95;6.65;;;0.70;99.90;;;;;;5055631;28;20032;-75
2021/01/09 05:42:39;;;;;;;15.90;8.23;;;0.80;99.80;;;;;;5053563;28;20032;-75
2021/01/09 05:45:06;;;;;;;16.90;8.18;;;0.70;99.90;;;;;;5052953;28;20021;-74
2021/01/09 05:47:32;;;;;;;18.13;7.65;;;0.80;99.90;;;;;;5052796;28;20021;-76
2021/01/09 05:49:59;;;;;;;16.25;8.30;;;0.70;99.90;;;;;;5053262;28;20075;-75
2021/01/09 05:52:27;;;;;;;17.20;8.88;;;0.70;99.90;;;;;;5053728;28;20125;-73
2021/01/09 05:54:56;;;;;;;19.00;9.18;;;0.70;99.90;;;;;;5053613;28;20035;-76
2021/01/09 05:57:30;;;;;;;19.17;9.57;;;0.60;99.90;;;;;;5054853;28;20056;-76
2021/01/09 06:00:04;;;;;;;18.25;9.02;;;0.60;99.90;;;;;;5052730;28;20500;-73
2021/01/09 06:02:49;;;;;;;19.05;9.43;;;0.60;99.90;;;;;;5053244;28;20033;-73
2021/01/09 06:05:18;;;;;;;20.65;9.50;;;0.60;99.90;;;;;;5051460;28;20035;-73
2021/01/09 06:07:47;;;;;;;21.10;8.98;;;0.70;99.90;;;;;;5056742;28;20079;-74
2021/01/09 06:10:17;;;;;;;20.60;9.82;;;0.90;99.90;;;;;;5034031;28;20403;-72
2021/01/09 06:12:54;;;;;;;;;;;0.90;99.90;;;;;;5053525;28;20021;-72
2021/01/09 06:15:23;;;;;;;20.75;10.00;;;0.80;99.90;;;;;;5039102;28;20332;-72
2021/01/09 06:17:49;;;;;;;22.02;11.25;;;0.90;99.90;;;;;;5034531;28;20033;-72
2021/01/09 06:20:15;;;;;;;18.77;9.68;;;0.80;99.90;;;;;;5038392;28;20049;-73
2021/01/09 06:22:41;;;;;;;18.25;9.38;;;0.80;99.90;;;;;;5052128;28;20045;-74
2021/01/09 06:25:10;;;;;;;19.60;10.05;;;0.70;99.90;;;;;;5055908;28;20064;-75
2021/01/09 06:27:39;;;;;;;20.65;10.13;;;0.80;99.90;;;;;;5047469;28;20025;-73
2021/01/09 06:30:09;;;;;;;19.88;9.55;;;0.80;99.90;;;;;;5031809;28;20069;-73
2021/01/09 06:32:40;;;;;;;22.58;10.95;;;0.70;99.90;;;;;;5036527;28;20452;-74
2021/01/09 06:35:08;;;;;;;22.10;10.68;;;0.60;99.90;;;;;;5051360;28;20523;-75
2021/01/09 06:37:34;;;;;;;21.40;10.95;;;0.60;99.90;;;;;;5050645;28;20052;-75
2021/01/09 06:40:01;;;;;;;23.98;11.77;;;0.70;99.90;;;;;;5051253;28;20070;-74
2021/01/09 06:42:27;;;;;;;24.77;11.43;;;0.80;99.90;;;;;;5052544;28;20396;-74
2021/01/09 06:44:54;;;;;;;24.60;10.95;;;0.80;99.90;;;;;;5050919;28;20028;-73
2021/01/09 06:47:30;;;;;;;19.20;10.07;;;0.80;99.90;;;;;;5051762;28;20056;-73
2021/01/09 06:50:18;;;;;;;23.00;11.00;;;0.70;99.90;;;;;;5067102;28;20032;-73
2021/01/09 06:52:53;;;;;;;25.58;10.98;;;0.60;99.90;;;;;;5052003;28;20049;-74
2021/01/09 06:55:42;;;;;;;22.83;12.02;;;0.70;99.90;;;;;;5052090;28;20479;-73
2021/01/09 06:58:08;;;;;;;24.52;11.50;;;0.70;99.90;;;;;;5039724;28;20579;-72
2021/01/09 07:00:35;;;;;;;25.42;11.57;;;0.70;99.90;;;;;;5059789;28;20017;-73
2021/01/09 07:03:11;;;;;;;27.35;12.27;;;0.60;99.90;;;;;;5032099;28;20025;-72
2021/01/09 07:05:46;;;;;;;27.25;11.80;;;0.80;99.90;;;;;;5032034;28;20018;-73
2021/01/09 07:08:28;;;;;;;24.88;12.18;;;0.80;99.90;;;;;;5031483;28;20026;-72
2021/01/09 07:11:04;;;;;;;27.88;12.15;;;0.80;99.90;;;;;;5038030;28;20056;-72
2021/01/09 07:13:32;;;;;;;25.40;12.32;;;0.80;99.90;;;;;;5051989;28;20021;-72
2021/01/09 07:16:10;;;;;;;27.83;12.70;;;0.70;99.90;;;;;;5051602;28;20480;-72
2021/01/09 07:18:42;;;;;;;25.75;11.30;;;0.80;99.90;;;;;;5067147;28;20123;-71
2021/01/09 07:21:10;;;;;;;24.13;10.23;;;0.90;99.90;;;;;;5051452;28;20021;-72
2021/01/09 07:23:38;;;;;;;25.13;12.88;;;0.80;99.90;;;;;;5051575;28;20095;-71
2021/01/09 07:26:05;;;;;;;31.58;14.70;;;0.80;99.90;;;;;;5051160;28;20051;-72
2021/01/09 07:28:35;;;;;;;27.15;12.25;;;0.80;99.90;;;;;;5066964;28;20021;-72
2021/01/09 07:31:06;;;;;;;28.95;12.98;;;0.80;99.90;;;;;;5051893;28;20436;-74
2021/01/09 07:33:34;;;;;;;26.05;11.77;;;0.90;99.90;;;;;;5050391;28;20021;-72
2021/01/09 07:36:00;;;;;;;26.33;12.88;;;0.90;99.90;;;;;;5049789;28;20039;-71
2021/01/09 07:38:26;;;;;;;31.70;14.70;;;0.90;99.90;;;;;;5051418;28;20029;-73
2021/01/09 07:40:54;;;;;;;28.35;13.10;;;0.90;99.90;;;;;;5051625;28;20369;-72
2021/01/09 07:43:41;;;;;;;29.58;14.25;;;0.80;99.90;;;;;;5050178;28;20025;-72
2021/01/09 07:46:27;;;;;;;34.63;16.35;;;0.90;99.90;;;;;;5049651;28;20396;-71
2021/01/09 07:48:57;;;;;;;24.45;11.75;;;0.90;99.90;;;;;;5050048;28;20408;-71
2021/01/09 07:51:52;;;;;;;25.85;12.32;;;0.90;99.90;;;;;;5051583;28;20013;-71
2021/01/09 07:54:44;;;;;;;28.67;12.98;;;0.90;99.90;;;;;;5051299;28;20037;-72
2021/01/09 07:57:19;;;;;;;28.05;13.60;;;0.80;99.90;;;;;;5050763;28;20029;-73
2021/01/09 07:59:54;;;;;;;24.55;12.57;;;0.90;99.90;;;;;;5049766;28;20041;-71
2021/01/09 08:02:23;;;;;;;26.45;13.25;;;1.00;99.90;;;;;;5049574;28;20035;-73
2021/01/09 08:04:49;;;;;;;23.80;12.13;;;1.00;99.90;;;;;;5049847;28;20035;-72
2021/01/09 08:07:16;;;;;;;28.65;13.15;;;1.00;99.90;;;;;;5065903;28;20115;-72
2021/01/09 08:09:42;;;;;;;22.50;10.48;;;1.00;99.90;;;;;;5051201;28;20029;-74
2021/01/09 08:12:07;;;;;;;23.65;12.00;;;1.10;99.90;;;;;;5066463;28;20021;-72
2021/01/09 08:14:33;;;;;;;28.27;14.80;;;1.10;99.90;;;;;;5049492;28;20017;-73
2021/01/09 08:17:09;;;;;;;23.65;11.80;;;1.00;99.90;;;;;;5048763;28;20028;-73
2021/01/09 08:19:35;;;;;;;26.67;13.95;;;0.90;99.90;;;;;;5050331;28;20074;-72
2021/01/09 08:22:03;;;;;;;26.42;12.32;;;1.00;99.90;;;;;;5049430;28;20112;-72
2021/01/09 08:24:29;;;;;;;23.05;11.13;;;1.10;99.90;;;;;;5049002;28;20040;-73
2021/01/09 08:26:56;;;;;;;24.50;12.10;;;1.00;99.90;;;;;;5036616;28;20030;-72
2021/01/09 08:29:26;;;;;;;27.23;12.20;;;1.10;99.90;;;;;;5030426;28;20022;-71
2021/01/09 08:31:53;;;;;;;25.25;10.65;;;1.10;99.90;;;;;;5029355;28;20496;-72
2021/01/09 08:34:20;;;;;;;21.38;10.57;;;1.20;99.90;;;;;;5042365;28;20519;-72
2021/01/09 08:36:49;;;;;;;27.08;13.75;;;1.30;99.90;;;;;;5049385;28;20045;-72
2021/01/09 08:39:15;;;;;;;21.00;9.35;;;1.30;99.90;;;;;;5047034;28;20025;-72
2021/01/09 08:41:42;;;;;;;22.42;10.90;;;1.30;99.90;;;;;;5039525;28;20033;-73
2021/01/09 08:44:12;;;;;;;22.38;10.73;;;1.20;99.90;;;;;;5043070;28;20031;-73
2021/01/09 08:46:39;;;;;;;34.17;16.17;;;1.20;99.90;;;;;;5053224;28;20176;-71
2021/01/09 08:49:06;;;;;;;22.65;10.02;;;1.20;99.90;;;;;;5050330;28;20067;-73
2021/01/09 08:51:33;;;;;;;19.73;10.30;;;1.20;99.90;;;;;;5065395;28;20067;-74
2021/01/09 08:54:02;;;;;;;24.20;11.32;;;1.20;99.90;;;;;;5046589;28;20021;-71
2021/01/09 08:56:29;;;;;;;29.45;13.48;;;1.30;99.90;;;;;;5040491;28;20099;-71
2021/01/09 08:58:59;;;;;;;20.42;11.05;;;1.30;99.90;;;;;;5050223;28;20303;-71
2021/01/09 09:01:27;;;;;;;26.42;14.30;;;1.40;99.80;;;;;;5050501;28;20029;-72
2021/01/09 09:03:55;;;;;;;27.17;13.32;;;1.30;99.90;;;;;;5065492;28;20131;-73
2021/01/09 09:06:22;;;;;;;19.80;9.52;;;1.40;99.90;;;;;;5049493;28;20025;-73
2021/01/09 09:08:48;;;;;;;26.02;11.32;;;1.40;99.50;;;;;;5050238;28;20017;-72
2021/01/09 09:11:17;;;;;;;21.33;10.98;;;1.30;99.90;;;;;;5065826;28;20090;-73
2021/01/09 09:13:42;;;;;;;19.58;9.95;;;1.20;99.90;;;;;;5069457;28;20407;-72
2021/01/09 09:16:19;;;;;;;20.27;10.07;;;1.40;99.90;;;;;;5053078;28;20021;-73
2021/01/09 09:18:45;;;;;;;18.85;9.15;;;1.50;99.50;;;;;;5052585;28;20444;-72
2021/01/09 09:21:11;;;;;;;18.92;9.20;;;1.50;99.30;;;;;;5053473;28;20048;-72
2021/01/09 09:23:37;;;;;;;18.83;9.05;;;1.50;99.50;;;;;;5053671;28;20464;-70
2021/01/09 09:26:13;;;;;;;21.90;10.05;;;1.60;99.60;;;;;;5052018;28;20025;-73
2021/01/09 09:28:52;;;;;;;20.10;10.10;;;1.60;99.70;;;;;;5053653;28;20498;-73
2021/01/09 09:31:26;;;;;;;21.08;10.45;;;1.50;99.90;;;;;;5052268;28;20021;-73
2021/01/09 09:33:58;;;;;;;25.13;12.38;;;1.40;99.40;;;;;;5052328;28;20100;-73
2021/01/09 09:36:24;;;;;;;18.40;9.88;;;1.40;99.70;;;;;;5052813;28;20093;-73
2021/01/09 09:38:49;;;;;;;17.92;9.30;;;1.50;99.60;;;;;;5068975;28;20029;-75
2021/01/09 09:41:15;;;;;;;19.25;10.07;;;1.60;98.80;;;;;;5053625;28;20033;-73
2021/01/09 09:43:41;;;;;;;21.65;11.48;;;1.60;99.50;;;;;;5068794;28;20033;-73
2021/01/09 09:46:07;;;;;;;20.20;9.88;;;1.60;99.70;;;;;;5052752;28;20495;-74
2021/01/09 09:48:34;;;;;;;20.42;10.52;;;1.60;99.10;;;;;;5068842;28;20067;-74
2021/01/09 09:51:11;;;;;;;21.20;11.23;;;1.70;99.30;;;;;;5052172;28;20540;-74
2021/01/09 09:53:39;;;;;;;19.05;10.52;;;1.70;99.40;;;;;;5052329;28;20040;-74
2021/01/09 09:56:11;;;;;;;18.15;10.43;;;1.50;98.80;;;;;;5051494;28;20031;-74
2021/01/09 09:58:38;;;;;;;17.58;8.35;;;1.60;99.20;;;;;;5052030;28;20038;-73
2021/01/09 10:01:32;;;;;;;18.48;9.73;;;1.60;98.80;;;;;;5051946;28;20021;-73
2021/01/09 10:04:00;;;;;;;21.20;10.95;;;1.60;99.00;;;;;;5053087;28;20412;-74
2021/01/09 10:06:40;;;;;;;16.85;8.32;;;1.50;99.60;;;;;;5052097;28;20024;-73
2021/01/09 10:09:19;;;;;;;17.52;7.72;;;1.40;98.90;;;;;;5051711;28;20079;-73
2021/01/09 10:11:47;;;;;;;20.23;9.75;;;1.40;99.10;;;;;;5053202;28;20032;-73
2021/01/09 10:14:13;;;;;;;19.50;9.65;;;1.50;99.50;;;;;;5051649;28;20029;-74
2021/01/09 10:16:39;;;;;;;18.25;8.80;;;1.60;99.20;;;;;;5052015;28;20365;-74
2021/01/09 10:19:05;;;;;;;16.38;8.75;;;1.60;98.80;;;;;;5068253;28;20028;-73
2021/01/09 10:21:31;;;;;;;16.80;8.80;;;1.70;98.10;;;;;;5068305;28;20032;-73
2021/01/09 10:23:58;;;;;;;17.17;7.60;;;1.60;98.60;;;;;;5051853;28;20051;-74
2021/01/09 10:26:28;;;;;;;15.32;6.90;;;1.60;98.50;;;;;;5050490;28;20017;-73
2021/01/09 10:28:54;;;;;;;18.80;8.95;;;1.60;98.30;;;;;;5052405;28;20025;-74
2021/01/09 10:31:30;;;;;;;18.88;8.73;;;1.60;99.00;;;;;;5049809;28;20048;-75
2021/01/09 10:33:56;;;;;;;16.67;8.48;;;1.60;98.40;;;;;;5052297;28;20033;-74
2021/01/09 10:36:26;;;;;;;14.90;7.57;;;1.50;98.70;;;;;;5051395;28;20032;-74
2021/01/09 10:38:53;;;;;;;15.68;8.32;;;1.70;98.60;;;;;;5052365;28;20068;-74
2021/01/09 10:41:18;;;;;;;13.73;6.65;;;1.70;98.50;;;;;;5051008;28;20078;-73
2021/01/09 10:43:44;;;;;;;16.42;8.27;;;1.90;97.90;;;;;;5050870;28;20033;-74
2021/01/09 10:46:09;;;;;;;16.23;8.38;;;1.90;97.60;;;;;;5066839;28;20025;-70
2021/01/09 10:48:35;;;;;;;17.55;9.25;;;1.90;97.20;;;;;;5050687;28;20036;-73
2021/01/09 10:51:01;;;;;;;16.10;9.00;;;2.00;97.60;;;;;;5050691;28;20021;-70
2021/01/09 10:53:26;;;;;;;17.13;8.73;;;2.00;98.20;;;;;;5041830;28;20484;-68
2021/01/09 10:55:56;;;;;;;14.00;7.85;;;2.10;97.40;;;;;;5061758;28;20493;-70
2021/01/09 10:58:22;;;;;;;15.45;6.85;;;2.20;97.30;;;;;;5057157;28;20144;-70
2021/01/09 11:00:47;;;;;;;17.08;8.07;;;2.20;96.20;;;;;;5050073;28;20074;-70
2021/01/09 11:03:13;;;;;;;16.63;9.02;;;2.20;96.70;;;;;;5041377;28;20041;-69
2021/01/09 11:05:40;;;;;;;13.65;6.70;;;2.30;96.50;;;;;;5045647;28;20475;-69
2021/01/09 11:08:06;;;;;;;14.32;7.47;;;2.20;96.10;;;;;;5050469;28;20017;-69
2021/01/09 11:10:31;;;;;;;14.82;7.70;;;2.10;96.90;;;;;;5049770;28;20029;-69
2021/01/09 11:12:57;;;;;;;15.02;7.40;;;1.90;98.00;;;;;;5049006;28;20024;-69
2021/01/09 11:15:23;;;;;;;14.55;7.05;;;2.00;97.10;;;;;;5051160;28;20025;-69
2021/01/09 11:17:48;;;;;;;14.30;7.45;;;2.20;96.60;;;;;;5049564;28;20028;-68
2021/01/09 11:20:15;;;;;;;18.20;8.52;;;2.30;96.40;;;;;;5051292;28;20434;-70
2021/01/09 11:22:40;;;;;;;13.90;7.30;;;2.50;96.10;;;;;;5051137;28;20051;-69
2021/01/09 11:25:06;;;;;;;16.35;8.40;;;2.50;95.50;;;;;;5051099;28;20033;-68
2021/01/09 11:27:32;;;;;;;14.52;7.80;;;2.50;96.00;;;;;;5050835;28;20075;-69
2021/01/09 11:29:57;;;;;;;13.00;6.35;;;2.40;95.90;;;;;;5051172;28;20392;-70
2021/01/09 11:32:23;;;;;;;13.80;7.18;;;2.40;95.90;;;;;;5066451;28;20017;-68
2021/01/09 11:34:49;;;;;;;14.27;7.82;;;2.30;96.10;;;;;;5050816;28;20549;-71
2021/01/09 11:37:15;;;;;;;14.18;7.70;;;2.30;96.40;;;;;;5050552;28;20586;-69
2021/01/09 11:39:40;;;;;;;15.70;7.43;;;2.50;96.30;;;;;;5051284;28;20065;-69
2021/01/09 11:42:07;;;;;;;15.77;8.20;;;2.50;96.40;;;;;;5066677;28;20032;-71
2021/01/09 11:44:33;;;;;;;14.43;6.97;;;2.60;95.90;;;;;;5051181;28;20024;-71
2021/01/09 11:46:58;;;;;;;15.68;8.40;;;2.70;95.70;;;;;;5065057;28;20033;-70
2021/01/09 11:49:25;;;;;;;16.38;8.70;;;2.80;95.20;;;;;;5066614;28;20480;-69
2021/01/09 11:51:52;;;;;;;14.43;8.20;;;2.80;95.60;;;;;;5051175;28;20123;-71
2021/01/09 11:54:18;;;;;;;16.23;8.95;;;2.80;94.70;;;;;;5051119;28;20028;-69
2021/01/09 11:56:43;;;;;;;15.70;8.82;;;2.60;95.70;;;;;;5050307;28;20033;-69
2021/01/09 11:59:09;;;;;;;18.98;9.00;;;2.60;95.60;;;;;;5051411;28;20498;-71
2021/01/09 12:01:36;;;;;;;18.65;9.55;;;2.70;95.80;;;;;;5050959;28;20484;-71
2021/01/09 12:04:02;;;;;;;21.65;10.85;;;2.50;95.90;;;;;;5050977;28;20476;-71
2021/01/09 12:06:27;;;;;;;23.30;10.82;;;2.50;95.80;;;;;;5065764;28;20104;-70
2021/01/09 12:08:53;;;;;;;23.25;11.20;;;2.60;96.40;;;;;;5066332;28;20131;-71
2021/01/09 12:11:20;;;;;;;17.40;8.95;;;2.70;96.60;;;;;;5050745;28;20418;-71
2021/01/09 12:13:46;;;;;;;16.25;9.15;;;2.80;95.70;;;;;;5049542;28;20029;-70
2021/01/09 12:16:12;;;;;;;15.82;8.48;;;2.80;95.10;;;;;;5048798;28;20135;-70
2021/01/09 12:18:37;;;;;;;15.23;8.35;;;2.80;95.80;;;;;;5050667;28;20036;-71
2021/01/09 12:21:03;;;;;;;16.70;8.95;;;2.70;95.90;;;;;;5050659;28;20636;-70
2021/01/09 12:23:28;;;;;;;22.30;9.20;;;2.70;95.60;;;;;;5050592;28;20075;-71
2021/01/09 12:25:54;;;;;;;15.90;7.82;;;2.80;95.60;;;;;;5050501;28;20025;-71
2021/01/09 12:28:20;;;;;;;14.23;8.13;;;2.70;95.20;;;;;;5049922;28;20021;-71
2021/01/09 12:30:48;;;;;;;14.30;7.70;;;2.70;95.50;;;;;;5050495;28;20021;-71
2021/01/09 12:33:14;;;;;;;25.73;12.65;;;2.70;95.30;;;;;;5050485;28;20096;-71
2021/01/09 12:35:40;;;;;;;14.45;7.22;;;2.70;95.80;;;;;;5050359;28;20506;-70
2021/01/09 12:38:05;;;;;;;14.27;7.65;;;2.60;95.60;;;;;;5050070;28;20036;-70
2021/01/09 12:40:32;;;;;;;18.05;9.73;;;2.50;96.00;;;;;;5050554;28;20778;-70
2021/01/09 12:42:57;;;;;;;15.75;8.35;;;2.60;95.90;;;;;;5050754;28;20379;-71